Hanover, Connecticut
Current Conditions -  °F | °C
As of 6:52 PM on Wednesday 22 Oct 2014 (Local Time) from KIJD Reporting Station
Light Rain Light Rain  
Wind Chill: 50°   Ceiling: 1700
Heat Index: 50°   Visibility: 9mi
Dew Point: 46°   Wind: 17mph
Humidity: 86%   Direction: 30°NNE
Pressure: 29.81"   Gusts: 31mph
Location:  41.64°N, 72.07°W
Report Text: KIJD 222252Z AUTO 03015G27KT 9SM -RA OVC017 10/08 A2981 RMK AO2 PK WND 01029/2218 SLP094 P0004 T01000078
Loading
Personal Weather Stations






























Interactive Weather Map
Tropical Storm Tracking
New forecast layout! Learn more

10-Day Weather Forecast

Advertisements
Track Severe Weather on mobile